Impacts METAR Board INFO
IDs:

KPDX - Portland Intl Arpt, OR, US

Updated at: 0344 UTC 20 Feb 2018
Potential Impact None Slight Moderate High
Time19/15Z 19/16Z 19/17Z 19/18Z 19/19Z 19/20Z 19/21Z 19/22Z 19/23Z 20/00Z 20/01Z 20/02Z 20/03Z
VIS10 10 10 10 10 10 10 10 10 10 10 10 10
CIG50 48 46 44 75 -- -- -- -- -- -- -- --
CoverOVCOVCBKNBKNBKNSCTSCTSCTSCTSCTSCTFEWFEW
FltCatVFRVFRVFRVFRVFRVFRVFRVFRVFRVFRVFRVFRVFR
WX-----SN--------------------
WDir1003200000100100310200
WSpd6 5 0 0 4 0 4 0 3 0 6 3 0
WGst-- -- -- -- -- -- -- -- -- -- -- -- --
Raw hourly METARs
KPDX 191453Z 10006KT 10SM FEW015 BKN050 OVC075 M01/M04 A3012 RMK AO2 SLP197 T10061039 53030
KPDX 191553Z 32005KT 10SM FEW018 BKN048 OVC075 00/M03 A3016 RMK AO2 SLP212 T00001033
KPDX 191653Z 00000KT 10SM -SN FEW029 BKN046 00/M04 A3018 RMK AO2 SNB21 SLP220 P0000 T00001039
KPDX 191753Z 00000KT 10SM FEW028 BKN044 01/M03 A3020 RMK AO2 SNE23 SLP225 P0000 60000 T00061033 10006 21006 51028
KPDX 191853Z VRB04KT 10SM FEW025 SCT048 BKN075 02/M04 A3021 RMK AO2 SLP231 T00221039
KPDX 191953Z 00000KT 10SM FEW030 SCT050 SCT075 03/M04 A3023 RMK AO2 SLP235 T00281044
KPDX 192053Z 01004KT 10SM SCT030 SCT050 03/M04 A3022 RMK AO2 SLP234 T00331044 50008
KPDX 192153Z 00000KT 10SM FEW035 SCT050 03/M05 A3022 RMK AO2 SLP233 T00281050
KPDX 192253Z 01003KT 10SM FEW045 SCT065 04/M04 A3022 RMK AO2 SLP232 T00441039
KPDX 192353Z 00000KT 10SM SCT039 SCT050 03/M05 A3023 RMK AO2 SLP235 T00331050 10044 20006 53001
KPDX 200053Z 31006KT 10SM FEW040 FEW060 SCT250 04/M07 A3023 RMK AO2 SLP235 T00391067
KPDX 200153Z 02003KT 10SM FEW050 FEW070 FEW250 03/M06 A3023 RMK AO2 SLP235 T00281056
KPDX 200253Z 00000KT 10SM FEW050 FEW250 02/M03 A3023 RMK AO2 SLP235 T00171028 50000